Yorktown Express — WDD6127 — position and weather

sailwx.info

Track history (hours):
 
Tides and Currents Weather Stations Pressure Air Temp Water Temp Dewpoint Dewpoint Depression Visibility Wind Speed Wind Dir Waves Ship Positions

Yorktown Express

Owner: Marine Transport Management, Inc., Jacksonville, FL. More information available from US FCC via Universal Licensing System and Coast Guard Vessel Documentation Center.

Last reported at 2015-Mar-31 17:33 UTC. Time now 2015-Mar-31 18:02 UTC.
Position N 50°34' W 000°47'.

Type: Ship. MMSI: 367168650.

Date/timePositionNaut miles runAvg speedWind from/ knotsBaromVisibWave heightAir tempDewpointWater temp
2015-Mar-31 17:33N 50°34' W 000°47'0 0.5
2015-Mar-31 16:33N 50°34' W 000°46'1 1.3
2015-Mar-31 15:33N 50°33' W 000°45'0 0.4
2015-Mar-31 14:33N 50°33' W 000°46'3 2.6
2015-Mar-31 13:33N 50°35' W 000°45'1 1.2
2015-Mar-31 12:33N 50°35' W 000°43'4 3.9
2015-Mar-31 11:33N 50°35' W 000°37'1110.8
2015-Mar-31 10:33N 50°33' W 000°20'1212.2
2015-Mar-31 09:33N 50°32' W 000°01'1111.2
2015-Mar-31 08:33N 50°35' E 000°16'1010.1
2015-Mar-31 07:33N 50°38' E 000°32'10 9.6
2015-Mar-31 06:33N 50°40' E 000°46'1010.4
2015-Mar-31 05:33N 50°47' E 000°59'1414.1
2015-Mar-31 04:33N 50°55' E 001°17'1414.4
2015-Mar-31 03:33N 51°05' E 001°33'1514.5
2015-Mar-31 02:33N 51°16' E 001°49'1414.4
2015-Mar-31 01:34N 51°28' E 002°02'1414.2
2015-Mar-31 00:33N 51°39' E 002°16'13215.8
2015-Mar-30 16:11N 53°21' E 004°33'1114.3
2015-Mar-30 15:27N 53°29' E 004°44'1314.4
2015-Mar-30 14:33N 53°34' E 005°04'1414.2
2015-Mar-30 13:34N 53°39' E 005°26'1514.8
2015-Mar-30 12:33N 53°43' E 005°50'1615.3
2015-Mar-30 11:33N 53°48' E 006°15'2719.2
2015-Mar-30 10:10N 53°55' E 006°59'4 6.3
2015-Mar-30 09:33N 53°55' E 007°05'1514.6
2015-Mar-30 08:33N 53°58' E 007°30'1111.3
2015-Mar-30 07:33N 53°53' E 007°47'1111.4
2015-Mar-30 06:33N 53°50' E 008°05'1313.2
2015-Mar-30 05:33N 53°41' E 008°22'8 8.1
2015-Mar-30 04:33N 53°35' E 008°31'0 0.1
2015-Mar-30 03:31N 53°35' E 008°32'0 0.0
2015-Mar-30 02:32N 53°35' E 008°32'0 0.0
2015-Mar-30 01:28N 53°35' E 008°32'0 0.0
2015-Mar-30 00:28N 53°35' E 008°32'0 0.0
2015-Mar-29 23:28N 53°35' E 008°32'0 0.0
2015-Mar-29 22:32N 53°35' E 008°31'0 0.0
2015-Mar-29 21:28N 53°35' E 008°32'0 0.0
2015-Mar-29 20:31N 53°35' E 008°32'0 0.0
2015-Mar-29 19:32N 53°35' E 008°32'0 0.0
2015-Mar-29 18:22N 53°35' E 008°32'0 0.0
2015-Mar-29 17:31N 53°35' E 008°32'0 0.0
2015-Mar-29 16:32N 53°35' E 008°32'0 0.0
2015-Mar-29 15:31N 53°35' E 008°32'0 0.0
2015-Mar-29 14:31N 53°35' E 008°32'0 0.0
2015-Mar-29 13:28N 53°35' E 008°32'0 0.0
2015-Mar-29 12:31N 53°35' E 008°32'0 0.0
2015-Mar-29 11:31N 53°35' E 008°32'0 0.0
2015-Mar-29 10:31N 53°35' E 008°32'0 0.0
2015-Mar-29 09:31N 53°35' E 008°32'0 0.0
2015-Mar-29 08:31N 53°35' E 008°32'0 0.0
2015-Mar-29 07:31N 53°35' E 008°32'0 0.0
2015-Mar-29 06:28N 53°35' E 008°32'0 0.0
2015-Mar-29 05:31N 53°35' E 008°32'0 0.0
2015-Mar-29 04:29N 53°35' E 008°32'0 0.0
2015-Mar-29 03:31N 53°35' E 008°32'0 0.0
2015-Mar-29 02:31N 53°35' E 008°32'0 0.0
2015-Mar-29 01:31N 53°35' E 008°32'0 0.0
2015-Mar-29 00:31N 53°35' E 008°32'0 0.0
2015-Mar-28 23:31N 53°35' E 008°32'0 0.0
2015-Mar-28 22:29N 53°35' E 008°32'0 0.0
2015-Mar-28 21:31N 53°35' E 008°32'0 0.0
2015-Mar-28 20:28N 53°35' E 008°32'0 0.0
2015-Mar-28 19:31N 53°35' E 008°32'0 0.0
2015-Mar-28 18:28N 53°35' E 008°32'0 0.0
2015-Mar-28 17:31N 53°35' E 008°32'0 0.0
2015-Mar-28 16:28N 53°35' E 008°32'0 0.0
2015-Mar-28 15:31N 53°35' E 008°32'0 0.0
2015-Mar-28 14:28N 53°35' E 008°32'0 0.0
2015-Mar-28 13:31N 53°35' E 008°32'0 0.0
2015-Mar-28 12:28N 53°35' E 008°32'0 0.0
2015-Mar-28 11:32N 53°35' E 008°32'0 0.0
2015-Mar-28 10:34N 53°35' E 008°31'10 9.5
2015-Mar-28 09:33N 53°42' E 008°20'1413.6
2015-Mar-28 08:33N 53°51' E 008°02'1110.9
2015-Mar-28 07:33N 53°53' E 007°44'10 9.7
2015-Mar-28 06:33N 53°54' E 007°28'1110.5
2015-Mar-28 05:33N 53°52' E 007°10'1716.7
2015-Mar-28 04:33N 53°48' E 006°43'1818.5
2015-Mar-28 03:33N 53°42' E 006°13'1918.8
2015-Mar-28 02:33N 53°37' E 005°42'1919.2
2015-Mar-28 01:33N 53°31' E 005°12'1919.2
2015-Mar-28 00:33N 53°23' E 004°43'1919.5
2015-Mar-27 23:33N 53°06' E 004°28'1919.5
2015-Mar-27 22:33N 52°49' E 004°12'1919.2
2015-Mar-27 21:33N 52°35' E 003°49'1919.2
2015-Mar-27 20:33N 52°20' E 003°31'2019.6
2015-Mar-27 19:32N 52°00' E 003°23'1818.3
2015-Mar-27 18:33N 51°44' E 003°14'1616.3
2015-Mar-27 17:33N 51°29' E 003°02'1110.9
2015-Mar-27 16:33N 51°25' E 003°18'1212.5
2015-Mar-27 15:33N 51°26' E 003°38'1110.9
2015-Mar-27 14:33N 51°21' E 003°53'8 8.1
2015-Mar-27 13:33N 51°22' E 004°06'7 6.6
2015-Mar-27 12:33N 51°20' E 004°16'0 0.0
2015-Mar-27 11:33N 51°20' E 004°16'0 0.0
2015-Mar-27 10:33N 51°20' E 004°16'0 0.0
2015-Mar-27 09:33N 51°20' E 004°16'0 0.0
2015-Mar-27 08:33N 51°20' E 004°16'0 0.0
2015-Mar-27 07:33N 51°20' E 004°16'0 0.0
2015-Mar-27 06:33N 51°20' E 004°16'0 0.0
2015-Mar-27 05:33N 51°20' E 004°16'0 0.0
2015-Mar-27 04:33N 51°20' E 004°16'0 0.0
2015-Mar-27 03:33N 51°20' E 004°16'0 0.0
2015-Mar-27 02:33N 51°20' E 004°16'0 0.0
2015-Mar-27 01:34N 51°20' E 004°16'0 0.0
2015-Mar-27 00:33N 51°20' E 004°16'0 0.0
2015-Mar-26 23:33N 51°20' E 004°16'0 0.0
2015-Mar-26 22:34N 51°20' E 004°16'0 0.0
2015-Mar-26 21:33N 51°20' E 004°16'0 0.0
2015-Mar-26 20:33N 51°20' E 004°16'0 0.0
2015-Mar-26 19:33N 51°20' E 004°16'0 0.0
2015-Mar-26 18:34N 51°20' E 004°16'0 0.0
2015-Mar-26 17:33N 51°20' E 004°16'0 0.0
2015-Mar-26 16:33N 51°20' E 004°16'0 0.0
2015-Mar-26 15:34N 51°20' E 004°16'0 0.0
2015-Mar-26 14:33N 51°20' E 004°16'0 0.0
2015-Mar-26 13:34N 51°20' E 004°16'0 0.0
2015-Mar-26 12:32N 51°20' E 004°16'0 0.0
2015-Mar-26 11:33N 51°20' E 004°16'0 0.0
2015-Mar-26 10:34N 51°20' E 004°16'0 0.0
2015-Mar-26 09:34N 51°20' E 004°16'0 0.0
2015-Mar-26 08:34N 51°20' E 004°16'0 0.0
2015-Mar-26 07:33N 51°20' E 004°16'0 0.0
2015-Mar-26 06:33N 51°20' E 004°16'0 0.0
2015-Mar-26 05:34N 51°20' E 004°16'0 0.0
2015-Mar-26 04:33N 51°20' E 004°16'0 0.0
2015-Mar-26 03:33N 51°20' E 004°16'3 3.0
2015-Mar-26 02:33N 51°22' E 004°13'10 9.7
2015-Mar-26 01:33N 51°25' E 003°58'1111.3
2015-Mar-26 00:33N 51°26' E 003°40'1211.9
2015-Mar-25 23:33N 51°24' E 003°21'1212.4
2015-Mar-25 22:34N 51°24' E 003°01'1313.2
2015-Mar-25 21:33N 51°22' E 002°40'1212.3
2015-Mar-25 20:34N 51°19' E 002°21'1211.9
2015-Mar-25 19:33N 51°13' E 002°05'1413.5
2015-Mar-25 18:33N 51°08' E 001°45'1514.9
2015-Mar-25 17:33N 50°56' E 001°31'4615.3
2015-Mar-25 14:32N 50°27' E 000°34'94818.8
2015-Mar-23 12:00N 47°54' W 023°18'18115.1 030 / 201032.210.8 2.0 9.0 1.811.0
2015-Mar-23 00:00N 46°54' W 027°30'10517.5 090 / 101034.010.8 1.010.0 0.1
2015-Mar-22 18:00N 46°18' W 029°54'   040 / 151033.010.8 1.512.0 2.915.0
Track history (hours):
 
Tides and Currents Weather Stations Pressure Air Temp Water Temp Dewpoint Dewpoint Depression Visibility Wind Speed Wind Dir Waves Ship Positions

Yorktown Express

Owner: Marine Transport Management, Inc., Jacksonville, FL. More information available from US FCC via Universal Licensing System and Coast Guard Vessel Documentation Center.

Last reported at 2015-Mar-31 17:33 UTC. Time now 2015-Mar-31 18:02 UTC.
Position N 50°34' W 000°47'.

Type: Ship. MMSI: 367168650.

Date/timePositionNaut miles runAvg speedWind from/ knotsBaromVisibWave heightAir tempDewpointWater temp
2015-Mar-31 17:33N 50°34' W 000°47'0 0.5
2015-Mar-31 16:33N 50°34' W 000°46'1 1.3
2015-Mar-31 15:33N 50°33' W 000°45'0 0.4
2015-Mar-31 14:33N 50°33' W 000°46'3 2.6
2015-Mar-31 13:33N 50°35' W 000°45'1 1.2
2015-Mar-31 12:33N 50°35' W 000°43'4 3.9
2015-Mar-31 11:33N 50°35' W 000°37'1110.8
2015-Mar-31 10:33N 50°33' W 000°20'1212.2
2015-Mar-31 09:33N 50°32' W 000°01'1111.2
2015-Mar-31 08:33N 50°35' E 000°16'1010.1
2015-Mar-31 07:33N 50°38' E 000°32'10 9.6
2015-Mar-31 06:33N 50°40' E 000°46'1010.4
2015-Mar-31 05:33N 50°47' E 000°59'1414.1
2015-Mar-31 04:33N 50°55' E 001°17'1414.4
2015-Mar-31 03:33N 51°05' E 001°33'1514.5
2015-Mar-31 02:33N 51°16' E 001°49'1414.4
2015-Mar-31 01:34N 51°28' E 002°02'1414.2
2015-Mar-31 00:33N 51°39' E 002°16'13215.8
2015-Mar-30 16:11N 53°21' E 004°33'1114.3
2015-Mar-30 15:27N 53°29' E 004°44'1314.4
2015-Mar-30 14:33N 53°34' E 005°04'1414.2
2015-Mar-30 13:34N 53°39' E 005°26'1514.8
2015-Mar-30 12:33N 53°43' E 005°50'1615.3
2015-Mar-30 11:33N 53°48' E 006°15'2719.2
2015-Mar-30 10:10N 53°55' E 006°59'4 6.3
2015-Mar-30 09:33N 53°55' E 007°05'1514.6
2015-Mar-30 08:33N 53°58' E 007°30'1111.3
2015-Mar-30 07:33N 53°53' E 007°47'1111.4
2015-Mar-30 06:33N 53°50' E 008°05'1313.2
2015-Mar-30 05:33N 53°41' E 008°22'8 8.1
2015-Mar-30 04:33N 53°35' E 008°31'0 0.1
2015-Mar-30 03:31N 53°35' E 008°32'0 0.0
2015-Mar-30 02:32N 53°35' E 008°32'0 0.0
2015-Mar-30 01:28N 53°35' E 008°32'0 0.0
2015-Mar-30 00:28N 53°35' E 008°32'0 0.0
2015-Mar-29 23:28N 53°35' E 008°32'0 0.0
2015-Mar-29 22:32N 53°35' E 008°31'0 0.0
2015-Mar-29 21:28N 53°35' E 008°32'0 0.0
2015-Mar-29 20:31N 53°35' E 008°32'0 0.0
2015-Mar-29 19:32N 53°35' E 008°32'0 0.0
2015-Mar-29 18:22N 53°35' E 008°32'0 0.0
2015-Mar-29 17:31N 53°35' E 008°32'0 0.0
2015-Mar-29 16:32N 53°35' E 008°32'0 0.0
2015-Mar-29 15:31N 53°35' E 008°32'0 0.0
2015-Mar-29 14:31N 53°35' E 008°32'0 0.0
2015-Mar-29 13:28N 53°35' E 008°32'0 0.0
2015-Mar-29 12:31N 53°35' E 008°32'0 0.0
2015-Mar-29 11:31N 53°35' E 008°32'0 0.0
2015-Mar-29 10:31N 53°35' E 008°32'0 0.0
2015-Mar-29 09:31N 53°35' E 008°32'0 0.0
2015-Mar-29 08:31N 53°35' E 008°32'0 0.0
2015-Mar-29 07:31N 53°35' E 008°32'0 0.0
2015-Mar-29 06:28N 53°35' E 008°32'0 0.0
2015-Mar-29 05:31N 53°35' E 008°32'0 0.0
2015-Mar-29 04:29N 53°35' E 008°32'0 0.0
2015-Mar-29 03:31N 53°35' E 008°32'0 0.0
2015-Mar-29 02:31N 53°35' E 008°32'0 0.0
2015-Mar-29 01:31N 53°35' E 008°32'0 0.0
2015-Mar-29 00:31N 53°35' E 008°32'0 0.0
2015-Mar-28 23:31N 53°35' E 008°32'0 0.0
2015-Mar-28 22:29N 53°35' E 008°32'0 0.0
2015-Mar-28 21:31N 53°35' E 008°32'0 0.0
2015-Mar-28 20:28N 53°35' E 008°32'0 0.0
2015-Mar-28 19:31N 53°35' E 008°32'0 0.0
2015-Mar-28 18:28N 53°35' E 008°32'0 0.0
2015-Mar-28 17:31N 53°35' E 008°32'0 0.0
2015-Mar-28 16:28N 53°35' E 008°32'0 0.0
2015-Mar-28 15:31N 53°35' E 008°32'0 0.0
2015-Mar-28 14:28N 53°35' E 008°32'0 0.0
2015-Mar-28 13:31N 53°35' E 008°32'0 0.0
2015-Mar-28 12:28N 53°35' E 008°32'0 0.0
2015-Mar-28 11:32N 53°35' E 008°32'0 0.0
2015-Mar-28 10:34N 53°35' E 008°31'10 9.5
2015-Mar-28 09:33N 53°42' E 008°20'1413.6
2015-Mar-28 08:33N 53°51' E 008°02'1110.9
2015-Mar-28 07:33N 53°53' E 007°44'10 9.7
2015-Mar-28 06:33N 53°54' E 007°28'1110.5
2015-Mar-28 05:33N 53°52' E 007°10'1716.7
2015-Mar-28 04:33N 53°48' E 006°43'1818.5
2015-Mar-28 03:33N 53°42' E 006°13'1918.8
2015-Mar-28 02:33N 53°37' E 005°42'1919.2
2015-Mar-28 01:33N 53°31' E 005°12'1919.2
2015-Mar-28 00:33N 53°23' E 004°43'1919.5
2015-Mar-27 23:33N 53°06' E 004°28'1919.5
2015-Mar-27 22:33N 52°49' E 004°12'1919.2
2015-Mar-27 21:33N 52°35' E 003°49'1919.2
2015-Mar-27 20:33N 52°20' E 003°31'2019.6
2015-Mar-27 19:32N 52°00' E 003°23'1818.3
2015-Mar-27 18:33N 51°44' E 003°14'1616.3
2015-Mar-27 17:33N 51°29' E 003°02'1110.9
2015-Mar-27 16:33N 51°25' E 003°18'1212.5
2015-Mar-27 15:33N 51°26' E 003°38'1110.9
2015-Mar-27 14:33N 51°21' E 003°53'8 8.1
2015-Mar-27 13:33N 51°22' E 004°06'7 6.6
2015-Mar-27 12:33N 51°20' E 004°16'0 0.0
2015-Mar-27 11:33N 51°20' E 004°16'0 0.0
2015-Mar-27 10:33N 51°20' E 004°16'0 0.0
2015-Mar-27 09:33N 51°20' E 004°16'0 0.0
2015-Mar-27 08:33N 51°20' E 004°16'0 0.0
2015-Mar-27 07:33N 51°20' E 004°16'0 0.0
2015-Mar-27 06:33N 51°20' E 004°16'0 0.0
2015-Mar-27 05:33N 51°20' E 004°16'0 0.0
2015-Mar-27 04:33N 51°20' E 004°16'0 0.0
2015-Mar-27 03:33N 51°20' E 004°16'0 0.0
2015-Mar-27 02:33N 51°20' E 004°16'0 0.0
2015-Mar-27 01:34N 51°20' E 004°16'0 0.0
2015-Mar-27 00:33N 51°20' E 004°16'0 0.0
2015-Mar-26 23:33N 51°20' E 004°16'0 0.0
2015-Mar-26 22:34N 51°20' E 004°16'0 0.0
2015-Mar-26 21:33N 51°20' E 004°16'0 0.0
2015-Mar-26 20:33N 51°20' E 004°16'0 0.0
2015-Mar-26 19:33N 51°20' E 004°16'0 0.0
2015-Mar-26 18:34N 51°20' E 004°16'0 0.0
2015-Mar-26 17:33N 51°20' E 004°16'0 0.0
2015-Mar-26 16:33N 51°20' E 004°16'0 0.0
2015-Mar-26 15:34N 51°20' E 004°16'0 0.0
2015-Mar-26 14:33N 51°20' E 004°16'0 0.0
2015-Mar-26 13:34N 51°20' E 004°16'0 0.0
2015-Mar-26 12:32N 51°20' E 004°16'0 0.0
2015-Mar-26 11:33N 51°20' E 004°16'0 0.0
2015-Mar-26 10:34N 51°20' E 004°16'0 0.0
2015-Mar-26 09:34N 51°20' E 004°16'0 0.0
2015-Mar-26 08:34N 51°20' E 004°16'0 0.0
2015-Mar-26 07:33N 51°20' E 004°16'0 0.0
2015-Mar-26 06:33N 51°20' E 004°16'0 0.0
2015-Mar-26 05:34N 51°20' E 004°16'0 0.0
2015-Mar-26 04:33N 51°20' E 004°16'0 0.0
2015-Mar-26 03:33N 51°20' E 004°16'3 3.0
2015-Mar-26 02:33N 51°22' E 004°13'10 9.7
2015-Mar-26 01:33N 51°25' E 003°58'1111.3
2015-Mar-26 00:33N 51°26' E 003°40'1211.9
2015-Mar-25 23:33N 51°24' E 003°21'1212.4
2015-Mar-25 22:34N 51°24' E 003°01'1313.2
2015-Mar-25 21:33N 51°22' E 002°40'1212.3
2015-Mar-25 20:34N 51°19' E 002°21'1211.9
2015-Mar-25 19:33N 51°13' E 002°05'1413.5
2015-Mar-25 18:33N 51°08' E 001°45'1514.9
2015-Mar-25 17:33N 50°56' E 001°31'4615.3
2015-Mar-25 14:32N 50°27' E 000°34'94818.8
2015-Mar-23 12:00N 47°54' W 023°18'18115.1 030 / 201032.210.8 2.0 9.0 1.811.0
2015-Mar-23 00:00N 46°54' W 027°30'10517.5 090 / 101034.010.8 1.010.0 0.1
2015-Mar-22 18:00N 46°18' W 029°54'   040 / 151033.010.8 1.512.0 2.915.0

Dump ship's entire track history